createdAt,value
2023-03-29T00:00:08.643Z,11.30
2023-03-29T00:02:39.044Z,9.70
2023-03-29T00:05:06.832Z,9.20
2023-03-29T00:07:54.208Z,12.60
2023-03-29T00:10:24.212Z,12.60
2023-03-29T00:12:52.675Z,10.30
2023-03-29T00:15:21.949Z,9.70
2023-03-29T00:17:48.762Z,9.30
2023-03-29T00:20:16.714Z,9.20
2023-03-29T00:22:44.442Z,8.30
2023-03-29T00:25:12.810Z,8.60
2023-03-29T00:27:40.392Z,8.50
2023-03-29T00:30:10.198Z,9.30
2023-03-29T00:32:37.885Z,10.30
2023-03-29T00:35:06.531Z,8.90
2023-03-29T00:37:33.396Z,9.80
2023-03-29T00:40:00.637Z,10.00
2023-03-29T00:42:27.515Z,10.50
2023-03-29T00:45:04.461Z,10.30
2023-03-29T00:47:46.681Z,10.60
2023-03-29T00:50:22.460Z,11.40
2023-03-29T00:52:56.736Z,11.20
2023-03-29T00:55:27.847Z,10.20
2023-03-29T00:57:57.333Z,11.30
2023-03-29T01:00:31.976Z,10.40
2023-03-29T01:03:01.675Z,9.60
2023-03-29T01:05:34.382Z,11.30
2023-03-29T01:08:06.783Z,11.00
2023-03-29T01:10:41.589Z,11.10
2023-03-29T01:13:13.053Z,10.40
2023-03-29T01:15:44.216Z,9.60
2023-03-29T01:18:11.847Z,9.70
2023-03-29T01:20:56.961Z,8.90
2023-03-29T01:23:52.874Z,9.80
2023-03-29T01:26:36.239Z,9.80
2023-03-29T01:29:12.691Z,9.70
2023-03-29T01:31:53.542Z,11.10
2023-03-29T01:34:36.708Z,11.20
2023-03-29T01:37:17.300Z,11.20
2023-03-29T01:39:44.238Z,10.10
2023-03-29T01:42:31.121Z,11.30
2023-03-29T01:45:11.658Z,10.70
2023-03-29T01:47:48.431Z,11.40
2023-03-29T01:50:24.145Z,10.60
2023-03-29T01:52:59.815Z,11.60
2023-03-29T01:55:35.291Z,11.00
2023-03-29T01:58:05.656Z,10.70
2023-03-29T02:00:34.968Z,11.10
2023-03-29T02:03:07.032Z,11.20
2023-03-29T02:05:35.108Z,11.20
2023-03-29T02:08:05.403Z,10.20
2023-03-29T02:10:34.124Z,10.30
2023-03-29T02:13:01.500Z,10.70
2023-03-29T02:15:28.283Z,10.40
2023-03-29T02:17:57.225Z,10.00
2023-03-29T02:20:27.150Z,10.00
2023-03-29T02:23:09.412Z,10.70
2023-03-29T02:25:37.979Z,9.90
2023-03-29T02:28:07.009Z,11.30
2023-03-29T02:30:44.549Z,11.50
2023-03-29T02:33:18.498Z,11.30
2023-03-29T02:35:53.446Z,11.60
2023-03-29T02:38:25.615Z,11.10
2023-03-29T02:40:53.127Z,12.50
2023-03-29T02:43:22.656Z,12.50
2023-03-29T02:45:52.101Z,12.30
2023-03-29T02:48:23.544Z,13.10
2023-03-29T02:50:54.735Z,12.50
2023-03-29T02:53:28.255Z,10.20
2023-03-29T02:55:55.610Z,11.90
2023-03-29T02:58:26.677Z,11.30
2023-03-29T03:00:53.959Z,9.60
2023-03-29T03:03:20.919Z,10.50
2023-03-29T03:05:49.438Z,10.90
2023-03-29T03:08:16.436Z,12.00
2023-03-29T03:10:43.286Z,10.80
2023-03-29T03:13:11.403Z,10.90
2023-03-29T03:15:41.198Z,11.90
2023-03-29T03:18:09.593Z,10.90
2023-03-29T03:20:36.553Z,11.80
2023-03-29T03:23:03.674Z,11.60
2023-03-29T03:25:31.795Z,13.10
2023-03-29T03:27:59.162Z,12.10
2023-03-29T03:30:26.540Z,14.70
2023-03-29T03:32:56.703Z,15.30
2023-03-29T03:35:39.308Z,14.80
2023-03-29T03:38:07.555Z,15.20
2023-03-29T03:40:34.917Z,15.70
2023-03-29T03:43:01.762Z,15.30
2023-03-29T03:45:29.089Z,16.00
2023-03-29T03:48:02.097Z,16.20
2023-03-29T03:50:55.072Z,17.00
2023-03-29T03:53:23.752Z,15.60
2023-03-29T03:56:09.259Z,14.60
2023-03-29T03:58:45.816Z,14.60
2023-03-29T04:01:13.389Z,14.10
2023-03-29T04:03:44.639Z,14.50
2023-03-29T04:06:14.292Z,13.70
2023-03-29T04:08:56.836Z,15.30
2023-03-29T04:11:33.765Z,12.60
2023-03-29T04:14:00.653Z,15.30
2023-03-29T04:16:39.781Z,14.10
2023-03-29T04:19:23.126Z,16.20
2023-03-29T04:21:51.394Z,16.20
2023-03-29T04:24:18.666Z,14.50
2023-03-29T04:26:57.185Z,13.70
2023-03-29T04:29:24.713Z,15.00
2023-03-29T04:31:59.195Z,14.70
2023-03-29T04:34:41.077Z,16.00
2023-03-29T04:37:10.613Z,15.60
2023-03-29T04:39:38.053Z,17.60
2023-03-29T04:42:05.985Z,16.10
2023-03-29T04:44:34.200Z,15.80
2023-03-29T04:47:02.989Z,16.30
2023-03-29T04:49:30.047Z,17.90
2023-03-29T04:52:00.947Z,17.50
2023-03-29T04:54:29.421Z,17.40
2023-03-29T04:57:05.752Z,17.20
2023-03-29T04:59:38.742Z,15.10
2023-03-29T05:02:14.691Z,15.10
2023-03-29T05:04:43.156Z,15.70
2023-03-29T05:07:15.384Z,15.30
2023-03-29T05:09:42.750Z,14.60
2023-03-29T05:12:10.325Z,14.20
2023-03-29T05:14:48.836Z,14.00
2023-03-29T05:17:16.049Z,16.30
2023-03-29T05:19:43.553Z,15.90
2023-03-29T05:22:10.561Z,17.60
2023-03-29T05:24:37.828Z,18.10
2023-03-29T05:27:11.842Z,22.80
2023-03-29T05:29:39.205Z,22.80
2023-03-29T05:32:19.790Z,23.90
2023-03-29T05:34:46.794Z,15.30
2023-03-29T05:37:13.639Z,9.40
2023-03-29T05:39:49.852Z,9.90
2023-03-29T05:42:22.552Z,15.30
2023-03-29T05:44:54.679Z,12.30
2023-03-29T05:47:21.662Z,9.60
2023-03-29T05:49:48.421Z,13.10
2023-03-29T05:52:20.852Z,13.10
2023-03-29T05:54:47.739Z,12.20
2023-03-29T05:57:15.266Z,12.80
2023-03-29T05:59:42.471Z,13.40
2023-03-29T06:02:11.748Z,13.50
2023-03-29T06:04:43.487Z,14.10
2023-03-29T06:07:25.734Z,13.60
2023-03-29T06:10:09.715Z,12.80
2023-03-29T06:12:38.151Z,16.70
2023-03-29T06:15:06.558Z,14.20
2023-03-29T06:17:39.674Z,14.30
2023-03-29T06:20:11.916Z,13.00
2023-03-29T06:22:41.992Z,10.40
2023-03-29T06:25:11.222Z,13.70
2023-03-29T06:27:38.706Z,14.60
2023-03-29T06:30:06.311Z,12.80
2023-03-29T06:32:35.113Z,12.60
2023-03-29T06:35:09.964Z,12.70
2023-03-29T06:37:49.498Z,11.00
2023-03-29T06:40:23.059Z,10.60
2023-03-29T06:42:51.070Z,12.10
2023-03-29T06:45:36.466Z,13.30
2023-03-29T06:48:08.007Z,13.10
2023-03-29T06:50:36.012Z,13.10
2023-03-29T06:53:09.511Z,13.00
2023-03-29T06:55:36.447Z,13.90
2023-03-29T06:58:20.681Z,12.80
2023-03-29T07:00:47.667Z,12.20
2023-03-29T07:03:23.602Z,13.10
2023-03-29T07:05:53.072Z,13.50
2023-03-29T07:08:21.428Z,12.40
2023-03-29T07:10:54.277Z,12.00
2023-03-29T07:13:36.685Z,12.40
2023-03-29T07:16:05.093Z,12.90
2023-03-29T07:18:46.115Z,12.50
2023-03-29T07:21:21.246Z,12.40
2023-03-29T07:23:48.037Z,11.80
2023-03-29T07:26:28.616Z,11.50
2023-03-29T07:28:57.195Z,9.00
2023-03-29T07:31:24.227Z,8.40
2023-03-29T07:33:56.200Z,9.10
2023-03-29T07:36:25.402Z,10.60
2023-03-29T07:38:55.149Z,8.90
2023-03-29T07:41:23.655Z,9.00
2023-03-29T07:43:55.904Z,9.20
2023-03-29T07:46:25.261Z,8.30
2023-03-29T07:48:52.306Z,9.40
2023-03-29T07:51:20.156Z,9.10
2023-03-29T07:53:49.897Z,8.70
2023-03-29T07:56:32.428Z,9.20
2023-03-29T07:59:11.938Z,9.10
2023-03-29T08:01:41.214Z,9.40
2023-03-29T08:07:06.488Z,9.00
2023-03-29T08:09:50.432Z,8.70
2023-03-29T08:12:17.636Z,9.40
2023-03-29T08:14:44.542Z,7.10
2023-03-29T08:17:24.793Z,6.10
2023-03-29T08:19:52.482Z,6.80
2023-03-29T08:22:23.143Z,5.60
2023-03-29T08:25:07.266Z,6.40
2023-03-29T08:27:39.909Z,6.50
2023-03-29T08:30:09.698Z,5.70
2023-03-29T08:32:38.486Z,6.10
2023-03-29T08:35:08.811Z,6.30
2023-03-29T08:37:40.795Z,5.60
2023-03-29T08:40:08.651Z,4.90
2023-03-29T08:43:11.140Z,5.10
2023-03-29T08:46:09.955Z,4.60
2023-03-29T08:48:44.223Z,4.80
2023-03-29T08:51:19.572Z,4.30
2023-03-29T08:53:52.748Z,4.20
2023-03-29T08:56:34.034Z,4.00
2023-03-29T08:59:01.498Z,3.80
2023-03-29T09:01:35.545Z,3.40
2023-03-29T09:04:09.175Z,2.90
2023-03-29T09:06:49.749Z,2.40
2023-03-29T09:09:22.867Z,2.80
2023-03-29T09:12:01.743Z,2.20
2023-03-29T09:14:46.400Z,2.40
2023-03-29T09:17:20.362Z,2.30
2023-03-29T09:19:48.397Z,2.60
2023-03-29T09:22:17.616Z,2.20
2023-03-29T09:25:15.394Z,2.70
2023-03-29T09:28:14.468Z,2.50
2023-03-29T09:31:03.976Z,2.40
2023-03-29T09:33:49.818Z,2.30
2023-03-29T09:36:42.157Z,2.20
2023-03-29T09:39:13.347Z,2.30
2023-03-29T09:41:48.154Z,2.70
2023-03-29T09:44:30.257Z,2.60
2023-03-29T09:47:19.367Z,2.40
2023-03-29T09:49:49.628Z,2.20
2023-03-29T09:52:18.248Z,2.60
2023-03-29T09:54:52.532Z,2.70
2023-03-29T09:57:35.348Z,2.60
2023-03-29T10:00:06.083Z,2.60
2023-03-29T10:02:41.010Z,2.40
2023-03-29T10:05:16.491Z,2.70
2023-03-29T10:07:49.019Z,2.80
2023-03-29T10:10:22.196Z,2.70
2023-03-29T10:12:51.876Z,2.40
2023-03-29T10:15:29.257Z,2.30
2023-03-29T10:18:04.477Z,2.40
2023-03-29T10:20:36.519Z,2.10
2023-03-29T10:23:06.931Z,2.50
2023-03-29T10:25:42.551Z,2.20
2023-03-29T10:28:21.246Z,2.50
2023-03-29T10:30:54.423Z,2.70
2023-03-29T10:33:24.541Z,3.10
2023-03-29T10:35:52.491Z,2.40
2023-03-29T10:38:23.087Z,2.40
2023-03-29T10:40:53.278Z,2.60
2023-03-29T10:43:20.256Z,2.50
2023-03-29T10:45:50.010Z,2.30
2023-03-29T10:48:18.170Z,2.70
2023-03-29T10:50:50.541Z,2.40
2023-03-29T10:53:33.709Z,2.80
2023-03-29T10:56:23.212Z,2.30
2023-03-29T10:58:58.689Z,2.30
2023-03-29T11:01:44.946Z,2.40
2023-03-29T11:04:20.967Z,2.30
2023-03-29T11:07:03.833Z,2.60
2023-03-29T11:09:50.016Z,2.60
2023-03-29T11:12:28.069Z,2.40
2023-03-29T11:15:09.720Z,2.20
2023-03-29T11:18:01.823Z,2.50
2023-03-29T11:20:44.181Z,2.00
2023-03-29T11:23:42.962Z,2.30
2023-03-29T11:26:36.857Z,1.80
2023-03-29T11:29:11.043Z,2.50
2023-03-29T11:34:08.058Z,2.20
2023-03-29T11:36:41.470Z,1.90
2023-03-29T11:39:09.589Z,2.10
2023-03-29T11:41:39.908Z,2.10
2023-03-29T11:44:11.581Z,2.60
2023-03-29T11:46:50.345Z,2.30
2023-03-29T11:49:32.337Z,2.30
2023-03-29T11:52:10.558Z,1.80
2023-03-29T11:54:40.542Z,2.30
2023-03-29T11:57:23.754Z,1.90
2023-03-29T12:00:12.452Z,2.00
2023-03-29T12:02:55.527Z,2.10
2023-03-29T12:05:28.260Z,2.10
2023-03-29T12:08:03.735Z,2.30
2023-03-29T12:10:35.547Z,1.80
2023-03-29T12:13:08.241Z,2.30
2023-03-29T12:15:49.462Z,2.50
2023-03-29T12:18:36.903Z,2.00
2023-03-29T12:21:10.760Z,2.10
2023-03-29T12:23:38.613Z,2.30
2023-03-29T12:26:22.061Z,2.40
2023-03-29T12:29:20.129Z,1.80
2023-03-29T12:32:02.735Z,2.10
2023-03-29T12:34:53.449Z,2.40
2023-03-29T12:37:54.613Z,2.60
2023-03-29T12:40:46.066Z,2.30
2023-03-29T12:43:33.189Z,2.20
2023-03-29T12:46:21.026Z,2.30
2023-03-29T12:48:53.242Z,1.90
2023-03-29T12:51:24.081Z,2.20
2023-03-29T12:53:53.708Z,2.30
2023-03-29T12:56:34.927Z,2.20
2023-03-29T12:59:16.556Z,2.10
2023-03-29T13:01:59.023Z,2.30
2023-03-29T13:04:38.801Z,2.40
2023-03-29T13:07:07.249Z,2.60
2023-03-29T13:09:48.188Z,2.30
2023-03-29T13:12:22.467Z,2.50
2023-03-29T13:14:54.840Z,2.00
2023-03-29T13:17:37.342Z,2.60
2023-03-29T13:20:34.903Z,2.40
2023-03-29T13:23:18.211Z,2.40
2023-03-29T13:25:47.056Z,2.40
2023-03-29T13:28:35.784Z,2.40
2023-03-29T13:31:03.527Z,2.30
2023-03-29T13:33:52.756Z,2.60
2023-03-29T13:36:34.609Z,2.30
2023-03-29T13:39:05.574Z,2.30
2023-03-29T13:41:47.124Z,1.80
2023-03-29T13:44:23.803Z,2.30
2023-03-29T13:47:03.622Z,2.10
2023-03-29T13:49:34.020Z,2.40
2023-03-29T13:52:07.261Z,2.80
2023-03-29T13:54:42.095Z,2.40
2023-03-29T13:57:12.841Z,2.60
2023-03-29T13:59:55.115Z,2.50
2023-03-29T14:02:32.545Z,2.70
2023-03-29T14:05:02.319Z,2.70
2023-03-29T14:07:32.721Z,2.80
2023-03-29T14:10:01.290Z,2.30
2023-03-29T14:12:37.762Z,2.80
2023-03-29T14:15:07.028Z,3.10
2023-03-29T14:17:36.455Z,3.00
2023-03-29T14:20:09.160Z,3.10
2023-03-29T14:22:36.076Z,2.10
2023-03-29T14:25:12.001Z,2.50
2023-03-29T14:27:38.778Z,2.60
2023-03-29T14:30:23.254Z,2.40
2023-03-29T14:32:51.647Z,2.70
2023-03-29T14:35:19.342Z,2.60
2023-03-29T14:37:46.576Z,2.70
2023-03-29T14:40:20.072Z,2.40
2023-03-29T14:42:48.790Z,2.50
2023-03-29T14:45:18.307Z,2.50
2023-03-29T14:47:47.400Z,2.40
2023-03-29T14:50:31.032Z,2.50
2023-03-29T14:53:00.828Z,2.00
2023-03-29T14:55:28.063Z,2.80
2023-03-29T14:57:55.683Z,2.10
2023-03-29T15:00:30.223Z,2.10
2023-03-29T15:03:01.494Z,2.40
2023-03-29T15:05:34.016Z,2.00
2023-03-29T15:08:03.169Z,2.00
2023-03-29T15:10:38.825Z,2.20
2023-03-29T15:13:08.091Z,2.40
2023-03-29T15:15:38.559Z,1.70
2023-03-29T15:18:07.887Z,2.00
2023-03-29T15:20:38.354Z,2.20
2023-03-29T15:23:21.178Z,2.30
2023-03-29T15:25:53.966Z,2.60
2023-03-29T15:28:26.485Z,1.90
2023-03-29T15:31:07.333Z,2.40
2023-03-29T15:33:38.025Z,34.10
2023-03-29T15:36:07.308Z,10.60
2023-03-29T15:38:43.099Z,9.10
2023-03-29T15:41:13.734Z,3.90
2023-03-29T15:43:42.073Z,220.00
2023-03-29T15:46:12.320Z,21.20
2023-03-29T15:48:39.505Z,10.10
2023-03-29T15:51:07.157Z,102.20
2023-03-29T15:53:35.595Z,11.10
2023-03-29T15:56:07.521Z,7.60
2023-03-29T15:58:35.675Z,20.90
2023-03-29T16:01:34.768Z,158.60
2023-03-29T16:04:04.747Z,25.10
2023-03-29T16:06:32.354Z,34.30
2023-03-29T16:08:59.544Z,24.10
2023-03-29T16:11:28.467Z,40.60
2023-03-29T16:13:56.774Z,9.30
2023-03-29T16:16:24.248Z,86.80
2023-03-29T16:18:51.243Z,138.90
2023-03-29T16:21:19.997Z,40.20
2023-03-29T16:23:47.244Z,12.20
2023-03-29T16:26:16.376Z,13.10
2023-03-29T16:28:43.869Z,20.50
2023-03-29T16:31:13.019Z,6.90
2023-03-29T16:33:41.143Z,3.60
2023-03-29T16:36:08.978Z,3.50
2023-03-29T16:38:36.236Z,118.80
2023-03-29T16:41:03.036Z,330.50
2023-03-29T16:43:29.937Z,203.30
2023-03-29T16:45:57.235Z,101.20
2023-03-29T16:48:24.444Z,100.30
2023-03-29T16:50:51.344Z,51.20
2023-03-29T16:53:18.825Z,11.60
2023-03-29T16:55:46.471Z,47.40
2023-03-29T16:58:13.417Z,83.30
2023-03-29T17:00:40.966Z,22.40
2023-03-29T17:03:08.180Z,58.10
2023-03-29T17:05:41.383Z,89.10
2023-03-29T17:08:10.245Z,61.20
2023-03-29T17:10:40.873Z,35.80
2023-03-29T17:13:24.089Z,15.10
2023-03-29T17:15:52.446Z,9.80
2023-03-29T17:18:21.164Z,22.70
2023-03-29T17:20:50.703Z,38.60
2023-03-29T17:23:17.944Z,9.80
2023-03-29T17:25:44.875Z,4.40
2023-03-29T17:28:11.713Z,6.20
2023-03-29T17:30:39.003Z,5.30
2023-03-29T17:33:08.218Z,12.50
2023-03-29T17:35:35.270Z,48.20
2023-03-29T17:38:02.971Z,84.30
2023-03-29T17:40:29.807Z,31.70
2023-03-29T17:42:56.530Z,18.60
2023-03-29T17:45:23.367Z,14.00
2023-03-29T17:47:50.393Z,12.00
2023-03-29T17:50:17.606Z,11.90
2023-03-29T17:52:59.718Z,50.60
2023-03-29T17:55:27.467Z,59.50
2023-03-29T17:57:54.471Z,55.90
2023-03-29T18:00:21.595Z,34.10
2023-03-29T18:02:48.505Z,26.50
2023-03-29T18:05:15.553Z,14.30
2023-03-29T18:07:42.417Z,12.30
2023-03-29T18:10:09.648Z,78.90
2023-03-29T18:12:36.712Z,27.90
2023-03-29T18:15:03.775Z,16.30
2023-03-29T18:17:31.372Z,18.20
2023-03-29T18:20:13.662Z,43.70
2023-03-29T18:22:56.180Z,17.10
2023-03-29T18:25:24.144Z,16.00
2023-03-29T18:27:51.395Z,13.40
2023-03-29T18:30:18.522Z,12.00
2023-03-29T18:32:45.482Z,12.60
2023-03-29T18:35:12.292Z,14.10
2023-03-29T18:37:39.034Z,11.30
2023-03-29T18:40:08.403Z,9.30
2023-03-29T18:42:35.154Z,12.90
2023-03-29T18:45:02.667Z,12.60
2023-03-29T18:47:29.554Z,12.20
2023-03-29T18:49:56.831Z,9.10
2023-03-29T18:52:23.676Z,12.60
2023-03-29T18:54:50.528Z,12.60
2023-03-29T18:57:17.725Z,13.50
2023-03-29T18:59:44.475Z,14.40
2023-03-29T19:02:11.302Z,53.90
2023-03-29T19:04:38.045Z,24.10
2023-03-29T19:07:04.844Z,13.70
2023-03-29T19:09:31.744Z,15.20
2023-03-29T19:11:58.619Z,15.90
2023-03-29T19:14:25.511Z,24.00
2023-03-29T19:16:52.962Z,22.10
2023-03-29T19:19:22.556Z,11.50
2023-03-29T19:21:49.638Z,10.80
2023-03-29T19:24:16.978Z,15.10
2023-03-29T19:26:44.792Z,16.50
2023-03-29T19:29:11.949Z,16.40
2023-03-29T19:31:39.019Z,17.40
2023-03-29T19:34:07.050Z,19.20
2023-03-29T19:36:34.056Z,24.40
2023-03-29T19:39:01.384Z,32.00
2023-03-29T19:41:28.505Z,28.10
2023-03-29T19:43:55.501Z,19.50
2023-03-29T19:46:22.968Z,16.80
2023-03-29T19:48:51.794Z,17.90
2023-03-29T19:51:19.747Z,18.60
2023-03-29T19:53:47.326Z,19.30
2023-03-29T19:56:15.856Z,20.90
2023-03-29T19:58:42.663Z,20.60
2023-03-29T20:01:09.914Z,27.50
2023-03-29T20:03:36.808Z,26.20
2023-03-29T20:06:04.639Z,24.50
2023-03-29T20:08:31.498Z,27.90
2023-03-29T20:10:59.822Z,46.10
2023-03-29T20:13:37.574Z,56.30
2023-03-29T20:16:07.602Z,54.20
2023-03-29T20:18:34.599Z,49.10
2023-03-29T20:21:02.223Z,40.20
2023-03-29T20:23:30.003Z,34.40
2023-03-29T20:25:57.159Z,36.10
2023-03-29T20:28:24.724Z,37.90
2023-03-29T20:30:53.047Z,24.90
2023-03-29T20:33:21.289Z,40.20
2023-03-29T20:35:49.457Z,28.10
2023-03-29T20:38:17.315Z,22.70
2023-03-29T20:40:44.910Z,25.20
2023-03-29T20:43:13.556Z,37.90
2023-03-29T20:45:52.745Z,25.30
2023-03-29T20:48:23.304Z,25.30
2023-03-29T20:50:51.462Z,32.30
2023-03-29T20:53:20.516Z,45.60
2023-03-29T20:55:48.136Z,52.00
2023-03-29T20:58:15.935Z,37.20
2023-03-29T21:00:43.709Z,135.60
2023-03-29T21:03:11.239Z,61.40
2023-03-29T21:05:39.084Z,50.30
2023-03-29T21:08:06.229Z,128.10
2023-03-29T21:10:33.440Z,147.30
2023-03-29T21:13:02.713Z,128.60
2023-03-29T21:15:30.839Z,56.40
2023-03-29T21:17:58.355Z,81.60
2023-03-29T21:20:25.861Z,139.40
2023-03-29T21:22:52.621Z,203.80
2023-03-29T21:25:19.827Z,56.10
2023-03-29T21:27:46.574Z,142.70
2023-03-29T21:30:13.741Z,92.60
2023-03-29T21:32:41.149Z,53.00
2023-03-29T21:35:08.847Z,26.40
2023-03-29T21:37:36.252Z,23.80
2023-03-29T21:40:08.313Z,26.60
2023-03-29T21:42:35.418Z,22.00
2023-03-29T21:45:03.100Z,19.70
2023-03-29T21:47:30.208Z,18.10
2023-03-29T21:49:57.075Z,23.50
2023-03-29T21:52:23.881Z,18.90
2023-03-29T21:54:50.833Z,14.90
2023-03-29T21:57:17.786Z,25.80
2023-03-29T21:59:44.564Z,22.50
2023-03-29T22:02:11.750Z,19.00
2023-03-29T22:04:38.817Z,17.90
2023-03-29T22:07:06.721Z,17.00
2023-03-29T22:09:35.721Z,17.20
2023-03-29T22:12:03.959Z,17.30
2023-03-29T22:14:35.374Z,19.70
2023-03-29T22:17:06.176Z,20.20
2023-03-29T22:19:39.370Z,18.90
2023-03-29T22:22:07.380Z,17.40
2023-03-29T22:24:34.204Z,19.10
2023-03-29T22:27:00.953Z,24.50
2023-03-29T22:29:27.713Z,20.10
2023-03-29T22:31:54.579Z,19.70
2023-03-29T22:34:21.371Z,17.20
2023-03-29T22:36:48.266Z,22.00
2023-03-29T22:39:15.167Z,22.80
2023-03-29T22:41:42.295Z,18.70
2023-03-29T22:44:09.385Z,33.30
2023-03-29T22:46:36.744Z,21.60
2023-03-29T22:49:03.936Z,17.20
2023-03-29T22:51:30.751Z,15.50
2023-03-29T22:53:57.658Z,28.90
2023-03-29T22:56:24.895Z,19.30
2023-03-29T22:58:51.900Z,15.10
2023-03-29T23:01:18.745Z,21.20
2023-03-29T23:03:45.530Z,14.70
2023-03-29T23:06:12.731Z,22.50
2023-03-29T23:08:39.643Z,47.30
2023-03-29T23:11:07.526Z,21.30
2023-03-29T23:13:35.370Z,24.90
2023-03-29T23:16:03.926Z,58.60
2023-03-29T23:18:34.931Z,55.20
2023-03-29T23:21:02.728Z,29.40
2023-03-29T23:23:30.030Z,26.10
2023-03-29T23:25:57.310Z,25.40
2023-03-29T23:28:27.601Z,35.20
2023-03-29T23:30:55.555Z,10.50
2023-03-29T23:33:23.371Z,10.20
2023-03-29T23:35:50.494Z,16.10
2023-03-29T23:38:17.360Z,14.40
2023-03-29T23:40:44.190Z,19.50
2023-03-29T23:43:11.270Z,14.30
2023-03-29T23:45:38.073Z,16.50
2023-03-29T23:48:05.142Z,11.80
2023-03-29T23:50:31.963Z,13.30
2023-03-29T23:52:58.744Z,13.90
2023-03-29T23:55:25.471Z,20.00
2023-03-29T23:57:52.326Z,12.50
